Atchison, KS (66002)

2:22 PM CDT on April 26, 2017 (GMT -0500)
| | Change Station
Active Advisory: Frost Advisory

Elev -9999 ft 0.00 °N, 0.00 °E | Updated 15 minutes ago

Overcast
Overcast
°F
Feels Like °F
N
Wind Variable Wind from North
Gusts mph

Today
High -- | Low -- °F
--% Chance of Precip.
Yesterday
High -- | Low -- °F
Precip. -- in
Pressure 29.62 in
Visibility 10.0 miles
Clouds Overcast 2100 ft
Dew Point Not available.
Humidity Not available.
Rainfall --
Snow Depth Not available.
6:27 AM 8:09 PM
New Moon, 0% visible
METAR KMCI 261853Z 32010KT 10SM OVC021 08/04 A2961 RMK AO2 SLP028 T00830039
Pressure 29.62 in
Visibility 10.0 miles
Clouds Overcast 2100 ft
Dew Point Not available.
Humidity Not available.
Rainfall --
Snow Depth Not available.
6:27 AM 8:09 PM
New Moon, 0% visible
METAR KMCI 261853Z 32010KT 10SM OVC021 08/04 A2961 RMK AO2 SLP028 T00830039

Get Your Daily Forecast Email!

Thanks for signing up!

Be on the lookout for a verification email in your inbox.

You'll start receiving severe weather alerts in your inbox..

×

10-Day Weather Forecast

Almanac

Astronomy

Apr. 26, 2017 Rise Set
Actual Time
Civil Twilight
Nautical Twilight
Astronomical Twilight
Moon
Length of Visible Light
Length of Day
Tomorrow will be .
, % of the Moon is Illuminated

Today's Extremes

State Highs State Lows

Community

WunderPhotos

WunderBlog® & News

Nearby

Air Quality

  Air Quality AQ Index Pollutant
Not available.

Snow Depth

Station Depth Elevation

Earthquake Activity

City Distance Mag. Time & Date
Minimum magnitude displayed is 2.5.

Coastal Water Temperatures

Place Temperature

Stations

Nearby Weather Stations

Station Location Temp. Windchill Dew Point Humidity Wind Precip. Elev Updated Type
                   

Watches & Warnings

Frost Advisory
Issued: 1:52 PM CDT Apr. 26, 2017 – National Weather Service

... Frost advisory in effect from 1 am to 8 am CDT Thursday...

The National Weather Service in Kansas City/Pleasant Hill has
issued a frost advisory, which is in effect from 1 am to 8 am CDT
Thursday.

* Temperature... low temperatures will fall into the lower to
middle 30s Thursday morning.

* Impacts... sensitive outdoor vegetation could suffer adverse
effects Thursday morning. Precautions should be taken to protect
plants from possible frost formation.

Precautionary/preparedness actions...

A frost advisory means that widespread frost is expected.
Sensitive outdoor plants may be killed if left uncovered.